Accueil
METAR-TAF:

METAR-TAF

Aéroports :

Natal, Rio Grande do Norte, Brésil

latitude: 05-46-05S, longitude: 035-22-34W, altitude: 88 m

Observation

Le bulletin a été fait il y a 59 minutes, à 03:00 UTC
Vent 4 kt de sud-ouest
Température 23°C
Humidité 100%
Pression 1013 hPa
Visibilité 10 km ou plus
Quelques nuages à une hauteur de 1700 ft

METAR: SBSG 240300Z 22004KT 9999 FEW017 23/23 Q1013

Heure: 00:59 (03:59 UTC)

Prévision

Le bulletin a été fait il y a 5 heures et 59 minutes, à 22:00 UTC
Prévision valable du 24 à 00 UTC au 24 à 24 UTC
Vent 7 kt de sud/sud-ouest
Visibilité: 8000 m
Nuages fragmentés à une hauteur de 2000 ft
Evoluant progressivement
du 24 à 10 UTC au 24 à 12 UTC
Vent 17 kt de sud/sud-est
Evoluant progressivement
du 24 à 21 UTC au 24 à 23 UTC
Vent 8 kt de sud

TAF: SBSG 232200Z 2400/2424 20007KT 8000 BKN020 TN22/2408Z TX29/2415Z BECMG 2410/2412 16017KT BECMG 2421/2423 18008KT RMK PCH

Observations et prévisions météorologiques de plus de 4000 aéroports (messages METAR et TAF).

Les stations disponibles sont représentées par des disques jaunes et rouges sur la carte.

Passer la souris dessus pour voir le nom de la station.

Cliquer dessus pour voir les observations et prévisions météorologiques.

Pour changer de carte: cliquez sur les boutons verts avec une croix noire pour zoomer, sur le bouton vert avec un tiret pour effectuer un zoom arrière, ou sur les flèches vertes pour les cartes adjacentes.


METAR-TAF: